LRBO - airport unknown

Compiled: 11:35:02 on 21/04/2018

Latest METAR/SPECI Reports

METAR LRBO 211100Z 24008KT 9999 SKC 21/04 Q1019 BLU BLU=

Previous reports

METAR LRBO 211000Z 27005KT 9999 SKC 21/03 Q1020 BLU BLU=
METAR LRBO 210900Z 26010KT 9999 SKC 20/02 Q1021 BLU BLU=
METAR LRBO 210800Z VRB02KT 9999 SKC 19/03 Q1021 BLU BLU=
METAR LRBO 210700Z 35006KT 9999 SKC 18/03 Q1021 BLU BLU=

Latest TAF report

TAF LRBO 211100Z 2112/2212 24008KT 9999 SKC=

Valid WARNINGS

No valid warnings for LRBO